• Join FlightAware (Why Join?)
  • Login
  • US Flag 
04:43PM EDT


 

Airport Tracker/Info


-or-


 

Live Flight TrackerFlight Track Log ✈ FDX1347 ✈ 28-Aug-2013 ✈ KALB - KMEM

Flight Track Log - Related Links

Times and Time Zones

All times are in EDT time to prevent confusion due to time zone crossing. See the FDX1347 flight status page for this flight to view local times or setup timezone preferences in your user account.

Time Position Orientation Groundspeed Altitude Reporting Facility
EDT Latitude Longitude Course Direction KTS MPH feet Rate Location/Type
09:59PM 42.7214 -73.8078 251° West 166 191 1,700  Level Boston Center
10:00PM 42.7039 -73.8781 251° West 257 296 3,400 2,520 Climbing Boston Center
10:06PM 43.0260 -74.4780 251° West 425 489 19,600 2,640 Climbing FlightAware
10:06PM 43.0150 -74.5150 248° West 429 494 20,300 2,520 Climbing FlightAware
10:06PM 42.9870 -74.5660 233° Southwest 439 505 21,200 2,460 Climbing FlightAware
10:07PM 42.9530 -74.5980 215° Southwest 444 511 22,100 2,280 Climbing FlightAware
10:07PM 42.9070 -74.6130 193° South 456 525 22,800 960 Climbing FlightAware
10:08PM 42.8380 -74.6110 179° South 467 537 23,000 120 Climbing FlightAware
10:08PM 42.7600 -74.6060 177° South 465 535 23,000  Level FlightAware
10:09PM 42.7100 -74.6090 183° South 466 536 23,000  Level FlightAware
10:09PM 42.6860 -74.6180 195° South 462 532 23,000  Level FlightAware
10:09PM 42.6590 -74.6360 206° Southwest 457 526 23,000 240 Level FlightAware
10:10PM 42.6080 -74.7090 227° Southwest 448 516 23,200 1,080 Climbing FlightAware
10:10PM 42.5670 -74.7940 237° Southwest 456 525 24,300 1,980 Climbing FlightAware
10:11PM 42.5450 -74.8400 237° Southwest 459 528 25,000 1,800 Climbing FlightAware
10:11PM 42.4900 -74.9520 236° Southwest 471 542 26,300 1,560 Climbing FlightAware
10:12PM 42.4330 -75.0690 237° Southwest 480 552 27,500 1,500 Climbing FlightAware
10:13PM 42.3840 -75.1700 237° Southwest 486 559 28,500 1,860 Climbing FlightAware
10:13PM 42.3430 -75.2610 239° Southwest 480 552 29,900 2,160 Climbing FlightAware
10:14PM 42.3090 -75.3440 241° Southwest 478 550 30,900 2,100 Climbing FlightAware
10:14PM 42.2690 -75.4430 241° Southwest 471 542 32,300 1,980 Climbing FlightAware
10:15PM 42.2330 -75.5330 242° Southwest 467 537 33,400 1,500 Climbing FlightAware
10:16PM 42.1970 -75.6230 242° Southwest 472 543 34,100 1,200 Climbing FlightAware
10:16PM 42.1580 -75.7220 242° Southwest 474 545 34,900 1,500 Climbing FlightAware
10:17PM 42.1250 -75.8020 241° Southwest 470 541 35,800 1,560 Climbing FlightAware
10:17PM 42.0870 -75.8940 241° Southwest 466 536 36,700 1,320 Climbing FlightAware
10:18PM 42.0500 -75.9850 241° Southwest 464 534 37,400 1,020 Climbing FlightAware
10:19PM 42.0160 -76.0680 241° Southwest 465 535 37,900 900 Climbing FlightAware
10:19PM 41.9780 -76.1590 241° Southwest 465 535 38,500 840 Climbing FlightAware
10:20PM 41.9430 -76.2450 241° Southwest 468 539 38,900 1,020 Climbing FlightAware
10:20PM 41.9070 -76.3310 241° Southwest 460 529 39,700 900 Climbing FlightAware
10:21PM 41.8700 -76.4190 241° Southwest 446 513 40,000 240 Climbing FlightAware
10:22PM 41.8340 -76.5080 242° Southwest 439 505 40,000  Level FlightAware
10:22PM 41.8010 -76.5860 240° Southwest 443 510 40,000  Level FlightAware
10:23PM 41.7660 -76.6680 240° Southwest 447 514 40,000  Level FlightAware
10:23PM 41.7300 -76.7550 241° Southwest 452 520 40,000  Level FlightAware
10:24PM 41.6970 -76.8310 240° Southwest 455 524 40,000  Level FlightAware
10:24PM 41.6640 -76.9100 241° Southwest 458 527 40,000  Level FlightAware
10:25PM 41.6230 -77.0060 240° Southwest 460 529 40,000  Level FlightAware
10:26PM 41.5840 -77.0980 240° Southwest 459 528 40,000  Level FlightAware
10:26PM 41.5530 -77.1710 240° Southwest 459 528 40,000  Level FlightAware
10:27PM 41.5160 -77.2570 240° Southwest 459 528 40,000  Level FlightAware
10:27PM 41.4730 -77.3580 240° Southwest 458 527 40,000  Level FlightAware
10:28PM 41.4410 -77.4310 240° Southwest 456 525 40,000  Level FlightAware
10:28PM 41.4040 -77.5160 240° Southwest 456 525 40,000  Level FlightAware
10:29PM 41.3640 -77.6090 240° Southwest 456 525 40,000  Level FlightAware
10:30PM 41.3220 -77.7060 240° Southwest 456 525 40,000  Level FlightAware
10:30PM 41.2910 -77.7790 241° Southwest 456 525 40,000  Level FlightAware
10:31PM 41.2460 -77.8800 239° Southwest 455 524 40,000  Level FlightAware
10:32PM 41.2040 -77.9740 239° Southwest 454 522 40,000  Level FlightAware
10:32PM 41.1660 -78.0610 240° Southwest 452 520 40,000  Level FlightAware
10:33PM 41.1300 -78.1420 239° Southwest 450 518 40,000  Level FlightAware
10:33PM 41.0940 -78.2250 240° Southwest 448 516 40,000  Level FlightAware
10:34PM 41.0580 -78.3050 239° Southwest 447 514 40,000  Level FlightAware
10:34PM 41.0280 -78.3740 240° Southwest 447 514 40,000  Level FlightAware
10:35PM 40.9850 -78.4700 239° Southwest 465 535 40,000  Level FlightAware
10:36PM 40.9380 -78.5760 240° Southwest 447 514 40,000  Level FlightAware
10:36PM 40.8980 -78.6630 239° Southwest 448 516 40,000  Level FlightAware
10:37PM 40.8620 -78.7460 240° Southwest 450 518 40,000  Level FlightAware
10:38PM 40.8300 -78.8140 238° Southwest 450 518 40,000  Level FlightAware
10:38PM 40.7880 -78.9060 239° Southwest 450 518 40,000  Level FlightAware
10:39PM 40.7410 -79.0120 240° Southwest 450 518 40,000  Level FlightAware
10:40PM 40.6990 -79.1040 239° Southwest 451 519 40,000  Level FlightAware
10:40PM 40.6680 -79.1700 238° Southwest 452 520 40,000  Level FlightAware
10:41PM 40.6260 -79.2620 239° Southwest 452 520 40,000  Level FlightAware
10:41PM 40.5860 -79.3490 239° Southwest 453 521 40,000  Level FlightAware
10:42PM 40.5480 -79.4320 239° Southwest 454 522 40,000  Level FlightAware
10:42PM 40.5110 -79.5120 239° Southwest 453 521 40,000  Level FlightAware
10:43PM 40.4770 -79.5870 239° Southwest 452 520 40,000  Level FlightAware
10:44PM 40.4370 -79.6710 238° Southwest 451 519 40,000  Level FlightAware
10:44PM 40.3950 -79.7600 238° Southwest 451 519 40,000  Level FlightAware
10:45PM 40.3600 -79.8350 239° Southwest 452 520 40,000  Level FlightAware
10:45PM 40.3220 -79.9170 239° Southwest 452 520 40,000  Level FlightAware
10:46PM 40.2840 -79.9990 239° Southwest 453 521 40,000  Level FlightAware
10:46PM 40.2430 -80.0870 239° Southwest 454 522 40,000  Level FlightAware
10:47PM 40.2100 -80.1550 238° Southwest 454 522 40,000  Level FlightAware
10:48PM 40.1710 -80.2390 239° Southwest 455 524 40,000  Level FlightAware
10:48PM 40.1310 -80.3240 238° Southwest 454 522 40,000  Level FlightAware
10:49PM 40.0910 -80.4080 238° Southwest 454 522 40,000  Level FlightAware
10:49PM 40.0520 -80.4890 238° Southwest 454 522 40,000  Level FlightAware
10:50PM 40.0150 -80.5660 238° Southwest 453 521 40,000  Level FlightAware
10:51PM 39.9870 -80.6260 239° Southwest 452 520 40,000  Level FlightAware
10:51PM 39.9390 -80.7250 238° Southwest 450 518 40,000  Level FlightAware
10:52PM 39.8980 -80.8100 238° Southwest 447 514 40,000  Level FlightAware
10:52PM 39.8450 -80.9210 238° Southwest 445 512 40,000  Level FlightAware
10:53PM 39.8030 -81.0070 238° Southwest 445 512 40,000  Level FlightAware
10:54PM 39.7650 -81.0840 237° Southwest 444 511 40,000  Level FlightAware
10:54PM 39.7240 -81.1700 238° Southwest 444 511 40,000  Level FlightAware
10:55PM 39.6890 -81.2420 238° Southwest 444 511 40,000  Level FlightAware
10:55PM 39.6540 -81.3140 238° Southwest 444 511 40,000  Level FlightAware
10:56PM 39.6150 -81.3920 237° Southwest 445 512 40,000  Level FlightAware
10:57PM 39.5730 -81.4760 237° Southwest 446 513 40,000  Level FlightAware
10:57PM 39.5330 -81.5590 238° Southwest 448 516 40,000  Level FlightAware
10:58PM 39.4940 -81.6360 237° Southwest 449 517 40,000  Level FlightAware
10:58PM 39.4570 -81.7130 238° Southwest 450 518 40,000  Level FlightAware
10:59PM 39.4160 -81.7940 237° Southwest 450 518 40,000  Level FlightAware
11:00PM 39.3760 -81.8740 237° Southwest 451 519 40,000  Level FlightAware
11:00PM 39.3340 -81.9600 238° Southwest 452 520 40,000  Level FlightAware
11:01PM 39.2980 -82.0300 236° Southwest 452 520 40,000  Level FlightAware
11:01PM 39.2560 -82.1140 237° Southwest 452 520 40,000  Level FlightAware
11:02PM 39.2140 -82.1980 237° Southwest 453 521 40,000  Level FlightAware
11:02PM 39.1780 -82.2680 236° Southwest 454 522 40,000  Level FlightAware
11:03PM 39.1350 -82.3540 237° Southwest 454 522 40,000  Level FlightAware
11:04PM 39.0980 -82.4260 237° Southwest 454 522 40,000  Level FlightAware
11:04PM 39.0570 -82.5080 237° Southwest 453 521 40,000  Level FlightAware
11:05PM 39.0150 -82.5910 237° Southwest 452 520 40,000  Level FlightAware
11:05PM 38.9750 -82.6680 236° Southwest 454 522 40,000  Level FlightAware
11:06PM 38.9350 -82.7470 237° Southwest 454 522 40,000  Level FlightAware
11:07PM 38.8930 -82.8280 236° Southwest 454 522 40,000  Level FlightAware
11:07PM 38.8530 -82.9070 237° Southwest 454 522 40,000  Level FlightAware
11:08PM 38.8140 -82.9810 236° Southwest 455 524 40,000  Level FlightAware
11:08PM 38.7720 -83.0640 237° Southwest 454 522 40,000  Level FlightAware
11:09PM 38.7340 -83.1360 236° Southwest 454 522 40,000  Level FlightAware
11:09PM 38.6940 -83.2120 236° Southwest 454 522 40,000  Level FlightAware
11:10PM 38.6570 -83.2840 237° Southwest 454 522 40,000  Level FlightAware
11:11PM 38.6090 -83.3750 236° Southwest 454 522 40,000  Level FlightAware
11:11PM 38.5780 -83.4360 237° Southwest 455 524 40,000  Level FlightAware
11:12PM 38.5210 -83.5430 236° Southwest 454 522 40,000  Level FlightAware
11:12PM 38.4790 -83.6250 237° Southwest 456 525 40,000  Level FlightAware
11:13PM 38.4420 -83.6940 236° Southwest 456 525 40,000  Level FlightAware
11:14PM 38.3990 -83.7750 236° Southwest 456 525 40,000  Level FlightAware
11:14PM 38.3510 -83.8660 236° Southwest 456 525 40,000  Level FlightAware
11:15PM 38.3140 -83.9350 236° Southwest 457 526 40,000  Level FlightAware
11:15PM 38.2720 -84.0150 236° Southwest 457 526 40,000  Level FlightAware
11:16PM 38.2310 -84.0910 236° Southwest 457 526 40,000  Level FlightAware
11:17PM 38.1880 -84.1710 236° Southwest 457 526 40,000  Level FlightAware
11:17PM 38.1500 -84.2440 237° Southwest 457 526 40,000  Level FlightAware
11:18PM 38.1050 -84.3260 235° Southwest 457 526 40,000  Level FlightAware
11:18PM 38.0670 -84.3970 236° Southwest 458 527 40,000  Level FlightAware
11:19PM 38.0210 -84.4810 235° Southwest 459 528 40,000  Level FlightAware
11:20PM 37.9780 -84.5610 236° Southwest 458 527 40,000  Level FlightAware
11:20PM 37.9400 -84.6320 236° Southwest 457 526 40,000  Level FlightAware
11:21PM 37.8960 -84.7130 235° Southwest 456 525 40,000  Level FlightAware
11:21PM 37.8639 -84.7721 235° Southwest 457 526 40,000  Level FlightAware ADS-B
11:22PM 37.8163 -84.8581 235° Southwest 458 527 40,000  Level FlightAware ADS-B
11:22PM 37.7790 -84.9263 235° Southwest 458 527 40,000  Level FlightAware ADS-B
11:23PM 37.7426 -84.9924 235° Southwest 459 528 40,000  Level FlightAware ADS-B
11:23PM 37.7061 -85.0585 235° Southwest 459 528 40,000  Level FlightAware ADS-B
11:24PM 37.6696 -85.1265 236° Southwest 459 528 40,000  Level FlightAware ADS-B
11:24PM 37.6329 -85.1924 235° Southwest 458 527 40,000  Level FlightAware ADS-B
11:25PM 37.5954 -85.2571 234° Southwest 458 527 40,000  Level FlightAware ADS-B
11:25PM 37.5611 -85.3148 233° Southwest 458 527 40,000  Level FlightAware ADS-B
11:26PM 37.5245 -85.3804 235° Southwest 458 527 40,000  Level FlightAware ADS-B
11:26PM 37.4884 -85.4463 235° Southwest 458 527 40,000  Level FlightAware ADS-B
11:27PM 37.4511 -85.5144 235° Southwest 457 526 40,000  Level FlightAware ADS-B
11:27PM 37.4133 -85.5822 235° Southwest 458 527 40,000  Level FlightAware ADS-B
11:28PM 37.3767 -85.6474 235° Southwest 458 527 40,000  Level FlightAware ADS-B
11:28PM 37.3399 -85.7150 236° Southwest 458 527 40,000  Level FlightAware ADS-B
11:29PM 37.3031 -85.7801 235° Southwest 457 526 40,000  Level FlightAware ADS-B
11:29PM 37.2664 -85.8451 235° Southwest 457 526 40,000  Level FlightAware ADS-B
11:30PM 37.2253 -85.9189 235° Southwest 456 525 40,000  Level FlightAware ADS-B
11:31PM 37.1765 -86.0052 235° Southwest 456 525 40,000  Level FlightAware ADS-B
11:31PM 37.1352 -86.0788 235° Southwest 456 525 40,000  Level FlightAware ADS-B
11:32PM 37.0984 -86.1434 234° Southwest 457 526 40,000  Level FlightAware ADS-B
11:32PM 37.0591 -86.2124 234° Southwest 458 527 40,000  Level FlightAware ADS-B
11:33PM 36.9850 -86.3420 234° Southwest 458 527 40,000  Level FlightAware
11:34PM 36.9351 -86.4302 235° Southwest 459 528 40,000  Level FlightAware ADS-B
11:34PM 36.9123 -86.4659 231° Southwest 460 529 40,000  Level FlightAware ADS-B
11:35PM 36.8708 -86.5292 231° Southwest 461 531 40,000  Level FlightAware ADS-B
11:36PM 36.7950 -86.6410 230° Southwest 462 532 40,000  Level FlightAware
11:36PM 36.7530 -86.7020 229° Southwest 462 532 40,000  Level FlightAware
11:36PM 36.7375 -86.7243 229° Southwest 463 533 40,000  Level FlightAware ADS-B
11:37PM 36.6950 -86.7872 230° Southwest 463 533 40,000  Level FlightAware ADS-B
11:37PM 36.6540 -86.8460 229° Southwest 462 532 40,000  Level FlightAware
11:38PM 36.6010 -86.9250 230° Southwest 461 531 40,000  Level FlightAware
11:38PM 36.5550 -86.9920 229° Southwest 461 531 40,000  Level FlightAware
11:39PM 36.5120 -87.0550 230° Southwest 462 532 40,000 -240 Level FlightAware
11:39PM 36.4715 -87.1130 229° Southwest 460 529 39,800 -960 Descending FlightAware ADS-B
11:40PM 36.4130 -87.1970 229° Southwest 462 532 38,900 -1,200 Descending FlightAware
11:41PM 36.3620 -87.2720 230° Southwest 467 537 38,200 -1,080 Descending FlightAware
11:41PM 36.3110 -87.3460 229° Southwest 469 540 37,600 -1,020 Descending FlightAware
11:42PM 36.2610 -87.4170 229° Southwest 471 542 37,000 -1,020 Descending FlightAware
11:42PM 36.2170 -87.4810 230° Southwest 473 544 36,500 -900 Descending FlightAware
11:43PM 36.1620 -87.5590 229° Southwest 473 544 36,000 -960 Descending FlightAware
11:44PM 36.1100 -87.6350 230° Southwest 475 547 35,400 -1,200 Descending FlightAware
11:44PM 36.0640 -87.6990 228° Southwest 482 555 34,700 -1,260 Descending FlightAware
11:45PM 36.0110 -87.7740 229° Southwest 490 564 34,000 -1,140 Descending FlightAware
11:45PM 35.9590 -87.8490 229° Southwest 494 568 33,400 -1,080 Descending FlightAware
11:46PM 35.9070 -87.9240 229° Southwest 495 570 32,800 -960 Descending FlightAware
11:46PM 35.8610 -87.9870 228° Southwest 494 568 32,400 -360 Descending FlightAware
11:47PM 35.8040 -88.0680 229° Southwest 494 568 32,400  Level FlightAware
11:48PM 35.7580 -88.1330 229° Southwest 494 568 32,400  Level FlightAware
11:48PM 35.7120 -88.1980 229° Southwest 494 568 32,400  Level FlightAware
11:49PM 35.6650 -88.2650 229° Southwest 494 568 32,400  Level FlightAware
11:50PM 35.6190 -88.3300 229° Southwest 494 568 32,400  Level FlightAware
11:50PM 35.5740 -88.3940 229° Southwest 494 568 32,400  Level FlightAware
11:51PM 35.5280 -88.4590 229° Southwest 494 568 32,400  Level FlightAware
11:51PM 35.4800 -88.5260 229° Southwest 494 568 32,400  Level FlightAware
11:52PM 35.4350 -88.5910 230° Southwest 494 568 32,400  Level FlightAware
11:53PM 35.3890 -88.6560 229° Southwest 494 568 32,400  Level FlightAware
11:53PM 35.3430 -88.7200 229° Southwest 494 568 32,400  Level FlightAware
11:54PM 35.2960 -88.7870 229° Southwest 494 568 32,400  Level FlightAware
11:54PM 35.2490 -88.8530 229° Southwest 494 568 32,400  Level FlightAware
11:55PM 35.2050 -88.9140 229° Southwest 494 568 32,400  Level FlightAware
11:56PM 35.1590 -88.9790 229° Southwest 494 568 32,400  Level FlightAware
11:56PM 35.1130 -89.0430 229° Southwest 494 568 32,400 -11,880 Level FlightAware
11:58PM 35.0544 -89.0431 229° Southwest 318 366 9,700 -10,440 Descending Memphis Center
11:59PM 35.0367 -89.1397 257° West 292 336 8,300 -1,320 Descending Memphis Center
12:00AM 35.0378 -89.2514 271° West 292 336 7,100 -1,200 Descending Memphis Center
12:01AM 35.0408 -89.3450 272° West 292 336 6,000 -600 Descending Memphis Center
12:02AM 35.0433 -89.4236 272° West 256 295 6,000 -60 Level Memphis Center
12:03AM 35.0461 -89.5047 272° West 243 280 5,900 -540 Descending Memphis Center
12:04AM 35.0508 -89.5833 274° West 243 280 5,000 -960 Descending Memphis Center
12:05AM 35.0514 -89.6619 271° West 236 272 4,000 -900 Descending Memphis Center
12:06AM 35.0539 -89.7381 272° West 236 272 3,200 -660 Descending Memphis Center
12:07AM 35.0542 -89.8042 270° West 219 252 2,700 -780 Descending Memphis Center
12:08AM 35.0564 -89.8650 273° West 196 226 1,700 -900 Descending Memphis Center
12:09AM 35.0567 -89.9081 270° West 157 181 1,000 -660 Descending Memphis Center
12:10AM 35.0589 -89.9511 274° West 133 153 400 -360 Descending Memphis Center
12:11AM 35.0589 -89.9942 270° West 133 153 300 -120 Descending Memphis Center
12:13AM 35.0424 -89.9767 270° West  Level Estimated
12:20AM 35.0424 -89.9767 270° West  Level Estimated
12:21AM 35.0424 -89.9767 270° West  Level Estimated
12:22AM 35.0424 -89.9767 270° West  Level Estimated
12:23AM 35.0424 -89.9767 270° West  Level Estimated
12:24AM 35.0424 -89.9767 270° West  Level Estimated
12:25AM 35.0424 -89.9767 270° West  Level Estimated
12:26AM 35.0424 -89.9767 270° West  Level Estimated